Moremi, Botswana

6:41 PM CAT on December 21, 2014 (GMT +0200)
Maun | Change Station
CLOSE
Current Station
Airport
Location: Maun,
Elevation: 3091 ft
Nearby Weather Stations

Elev 3091 ft 19.98 °S, 23.42 °E | Updated 41 minutes ago

Thunderstorm
Thunderstorm
91 °F
Feels Like 92 °F
N
1
Wind Variable Wind from Variable

Today
High -- | Low -- °F
--% Chance of Precip.
Yesterday
High -- | Low -- °F
Precip. -- in
5:45 AM 7:03 PM
Waning Crescent, 0% visible
Pressure 29.86 in
Visibility 6.2 miles
Clouds Few 3000 ft
Few 3500 ft
Heat Index 92 °F
Dew Point 63 °F
Humidity 38%
Rainfall 0.00 in
Snow Depth Not available.
UV 1 out of 12
Pollen Not available.
Air Quality Not available.
Flu Activity Not available.
METAR FBMN 211600Z VRB01KT 9999 TS FEW030 FEW035CB 33/17 Q1011

More Conditions Fewer Conditions

Pressure 29.86 in
Visibility 6.2 miles
Clouds Few 3000 ft
Few 3500 ft
Heat Index 92 °F
Dew Point 63 °F
Humidity 38%
Rainfall 0.00 in
Snow Depth Not available.
UV 1 out of 12
Pollen Not available.
Air Quality Not available.
Flu Activity Not available.
METAR FBMN 211600Z VRB01KT 9999 TS FEW030 FEW035CB 33/17 Q1011

More Conditions Fewer Conditions

10-Day Weather Forecast

Almanac

Astronomy

Dec. 21, 2014 Rise Set
Actual Time
Civil Twilight
Nautical Twilight
Astronomical Twilight
Moon
Length of Visible Light
Length of Day
Tomorrow will be .
, % of the Moon is Illuminated

Today's Extremes

Country Highs Country Lows

Community

WunderPhotos

Upload Photos

1,779,433 photos uploaded!

WunderBlogs® & News

Nearby

Air Quality

  Air Quality AQ Index Pollutant
Not available.

Snow Depth

Station Depth Elevation

Earthquake Activity

City Distance Mag. Time & Date
Minimum magnitude displayed is 2.5.

Coastal Water Temperatures

Place Temperature

Nearby Weather Stations